createdAt,value
2024-04-24T00:02:01.214Z,8.39
2024-04-24T00:04:28.983Z,8.42
2024-04-24T00:06:56.729Z,8.45
2024-04-24T00:09:24.402Z,8.45
2024-04-24T00:11:52.410Z,8.46
2024-04-24T00:14:21.663Z,8.47
2024-04-24T00:16:49.372Z,8.49
2024-04-24T00:19:17.059Z,8.49
2024-04-24T00:21:44.742Z,8.50
2024-04-24T00:24:16.783Z,8.49
2024-04-24T00:26:44.847Z,8.46
2024-04-24T00:29:12.516Z,8.44
2024-04-24T00:31:40.186Z,8.44
2024-04-24T00:34:08.734Z,8.46
2024-04-24T00:36:36.404Z,8.46
2024-04-24T00:39:04.113Z,8.47
2024-04-24T00:41:31.766Z,8.46
2024-04-24T00:43:59.516Z,8.48
2024-04-24T00:46:29.852Z,8.48
2024-04-24T00:48:59.665Z,8.47
2024-04-24T00:51:28.606Z,8.46
2024-04-24T00:53:56.343Z,8.44
2024-04-24T00:56:24.545Z,8.41
2024-04-24T00:58:52.863Z,8.38
2024-04-24T01:01:21.306Z,8.37
2024-04-24T01:03:49.536Z,8.39
2024-04-24T01:06:17.249Z,8.39
2024-04-24T01:08:44.964Z,8.36
2024-04-24T01:11:12.872Z,8.33
2024-04-24T01:13:40.658Z,8.32
2024-04-24T01:16:17.780Z,8.30
2024-04-24T01:19:08.205Z,8.30
2024-04-24T01:22:01.856Z,8.28
2024-04-24T01:24:37.383Z,8.26
2024-04-24T01:27:05.275Z,8.24
2024-04-24T01:29:33.268Z,8.22
2024-04-24T01:32:01.099Z,8.25
2024-04-24T01:34:28.799Z,8.26
2024-04-24T01:36:56.509Z,8.27
2024-04-24T01:39:24.263Z,8.27
2024-04-24T01:41:52.033Z,8.28
2024-04-24T01:44:19.746Z,8.29
2024-04-24T01:46:47.647Z,8.28
2024-04-24T01:49:15.411Z,8.28
2024-04-24T01:51:43.174Z,8.28
2024-04-24T01:54:10.824Z,8.26
2024-04-24T01:56:38.603Z,8.26
2024-04-24T01:59:06.326Z,8.28
2024-04-24T02:01:34.024Z,8.27
2024-04-24T02:04:01.828Z,8.25
2024-04-24T02:06:29.484Z,8.25
2024-04-24T02:08:57.320Z,8.25
2024-04-24T02:11:25.057Z,8.28
2024-04-24T02:13:53.033Z,8.26
2024-04-24T02:16:20.698Z,8.25
2024-04-24T02:18:48.527Z,8.25
2024-04-24T02:21:16.301Z,8.21
2024-04-24T02:23:43.973Z,8.21
2024-04-24T02:26:12.114Z,8.23
2024-04-24T02:28:39.867Z,8.22
2024-04-24T02:31:07.632Z,8.22
2024-04-24T02:33:35.856Z,8.21
2024-04-24T02:36:03.969Z,8.22
2024-04-24T02:38:31.678Z,8.23
2024-04-24T02:40:59.561Z,8.21
2024-04-24T02:43:27.400Z,8.18
2024-04-24T02:45:55.884Z,8.16
2024-04-24T02:48:23.764Z,8.14
2024-04-24T02:50:51.495Z,8.15
2024-04-24T02:53:19.235Z,8.14
2024-04-24T02:55:47.155Z,8.12
2024-04-24T02:58:14.791Z,8.09
2024-04-24T03:00:42.483Z,8.03
2024-04-24T03:03:10.381Z,8.01
2024-04-24T03:05:38.355Z,7.99
2024-04-24T03:08:06.260Z,7.95
2024-04-24T03:10:33.903Z,7.94
2024-04-24T03:13:01.582Z,7.98
2024-04-24T03:15:29.202Z,7.99
2024-04-24T03:17:57.028Z,7.98
2024-04-24T03:20:24.939Z,7.99
2024-04-24T03:22:52.828Z,7.99
2024-04-24T03:25:20.516Z,7.96
2024-04-24T03:27:48.272Z,7.95
2024-04-24T03:30:15.978Z,7.93
2024-04-24T03:32:43.831Z,7.91
2024-04-24T03:35:11.694Z,7.95
2024-04-24T03:37:39.892Z,7.96
2024-04-24T03:40:08.193Z,7.96
2024-04-24T03:42:37.864Z,7.96
2024-04-24T03:45:06.030Z,7.97
2024-04-24T03:47:33.939Z,7.97
2024-04-24T03:50:01.840Z,7.95
2024-04-24T03:52:29.619Z,7.93
2024-04-24T03:54:57.302Z,7.94
2024-04-24T03:57:25.065Z,7.98
2024-04-24T03:59:52.779Z,7.99
2024-04-24T04:02:20.554Z,7.98
2024-04-24T04:04:48.335Z,7.97
2024-04-24T04:07:16.195Z,7.95
2024-04-24T04:09:44.788Z,7.93
2024-04-24T04:12:13.555Z,7.87
2024-04-24T04:14:41.642Z,7.86
2024-04-24T04:17:10.216Z,7.87
2024-04-24T04:19:38.397Z,7.90
2024-04-24T04:22:06.161Z,7.95
2024-04-24T04:24:33.945Z,7.95
2024-04-24T04:27:02.112Z,7.96
2024-04-24T04:29:29.976Z,7.97
2024-04-24T04:31:57.791Z,7.97
2024-04-24T04:34:26.306Z,7.96
2024-04-24T04:36:54.200Z,7.95
2024-04-24T04:39:21.887Z,7.92
2024-04-24T04:41:49.707Z,7.91
2024-04-24T04:44:17.606Z,7.88
2024-04-24T04:46:45.515Z,7.86
2024-04-24T04:49:13.586Z,7.86
2024-04-24T04:51:41.317Z,7.86
2024-04-24T04:54:09.015Z,7.83
2024-04-24T04:56:36.800Z,7.83
2024-04-24T04:59:04.508Z,7.77
2024-04-24T05:01:32.291Z,7.68
2024-04-24T05:04:00.032Z,7.58
2024-04-24T05:06:28.208Z,7.51
2024-04-24T05:08:55.913Z,7.45
2024-04-24T05:11:23.740Z,7.42
2024-04-24T05:13:51.611Z,7.46
2024-04-24T05:16:19.382Z,7.44
2024-04-24T05:18:47.501Z,7.43
2024-04-24T05:21:15.278Z,7.40
2024-04-24T05:23:42.983Z,7.40
2024-04-24T05:26:29.087Z,7.40
2024-04-24T05:29:07.778Z,7.40
2024-04-24T05:31:36.998Z,7.37
2024-04-24T05:34:05.339Z,7.35
2024-04-24T05:36:33.393Z,7.38
2024-04-24T05:39:01.177Z,7.40
2024-04-24T05:41:28.936Z,7.40
2024-04-24T05:43:56.691Z,7.39
2024-04-24T05:46:24.403Z,7.39
2024-04-24T05:48:52.257Z,7.41
2024-04-24T05:51:20.142Z,7.40
2024-04-24T05:53:47.830Z,7.37
2024-04-24T05:56:15.674Z,7.32
2024-04-24T05:58:44.811Z,7.27
2024-04-24T06:01:12.537Z,7.26
2024-04-24T06:03:40.278Z,7.26
2024-04-24T06:06:07.974Z,7.26
2024-04-24T06:08:35.699Z,7.24
2024-04-24T06:11:03.630Z,7.24
2024-04-24T06:13:31.444Z,7.23
2024-04-24T06:15:59.186Z,7.21
2024-04-24T06:18:26.954Z,7.20
2024-04-24T06:20:54.668Z,7.21
2024-04-24T06:23:22.469Z,7.20
2024-04-24T06:25:50.225Z,7.15
2024-04-24T06:28:17.986Z,7.14
2024-04-24T06:30:45.686Z,7.11
2024-04-24T06:33:13.691Z,7.12
2024-04-24T06:35:41.691Z,7.12
2024-04-24T06:38:09.655Z,7.11
2024-04-24T06:40:37.539Z,7.11
2024-04-24T06:43:05.312Z,7.06
2024-04-24T06:45:32.964Z,7.01
2024-04-24T06:48:01.167Z,7.00
2024-04-24T06:50:29.176Z,7.02
2024-04-24T06:52:57.247Z,7.09
2024-04-24T06:55:27.175Z,7.12
2024-04-24T06:57:57.555Z,7.17
2024-04-24T07:00:29.149Z,7.19
2024-04-24T07:02:58.039Z,7.22
2024-04-24T07:05:25.820Z,7.27
2024-04-24T07:07:53.654Z,7.30
2024-04-24T07:10:21.418Z,7.28
2024-04-24T07:12:49.495Z,7.28
2024-04-24T07:15:17.327Z,7.30
2024-04-24T07:17:45.421Z,7.35
2024-04-24T07:20:13.338Z,7.41
2024-04-24T07:22:41.092Z,7.41
2024-04-24T07:25:08.777Z,7.42
2024-04-24T07:27:36.564Z,7.40
2024-04-24T07:30:07.012Z,7.42
2024-04-24T07:32:35.002Z,7.48
2024-04-24T07:35:02.995Z,7.56
2024-04-24T07:37:30.879Z,7.63
2024-04-24T07:40:00.902Z,7.68
2024-04-24T07:42:28.651Z,7.70
2024-04-24T07:44:56.370Z,7.72
2024-04-24T07:47:24.348Z,7.76
2024-04-24T07:49:52.364Z,7.77
2024-04-24T07:52:20.034Z,7.77
2024-04-24T07:54:47.771Z,7.78
2024-04-24T07:57:15.448Z,7.81
2024-04-24T07:59:43.425Z,7.83
2024-04-24T08:02:11.124Z,7.85
2024-04-24T08:04:38.843Z,7.92
2024-04-24T08:07:06.621Z,7.94
2024-04-24T08:09:34.243Z,7.94
2024-04-24T08:12:02.146Z,7.98
2024-04-24T08:14:30.441Z,8.05
2024-04-24T08:16:58.368Z,8.11
2024-04-24T08:19:26.012Z,8.17
2024-04-24T08:21:53.782Z,8.18
2024-04-24T08:24:21.420Z,8.18
2024-04-24T08:26:49.159Z,8.21
2024-04-24T08:29:16.926Z,8.22
2024-04-24T08:31:44.742Z,8.21
2024-04-24T08:34:12.513Z,8.20
2024-04-24T08:36:42.989Z,8.24
2024-04-24T08:39:15.843Z,8.25
2024-04-24T08:41:44.258Z,8.21
2024-04-24T08:44:13.882Z,8.18
2024-04-24T08:46:43.644Z,8.21
2024-04-24T08:49:11.835Z,8.23
2024-04-24T08:51:43.128Z,8.26
2024-04-24T08:54:20.091Z,8.28
2024-04-24T08:57:00.272Z,8.28
2024-04-24T08:59:32.858Z,8.27
2024-04-24T09:02:06.159Z,8.27
2024-04-24T09:04:35.963Z,8.24
2024-04-24T09:07:04.736Z,8.23
2024-04-24T09:09:33.371Z,8.25
2024-04-24T09:12:02.904Z,8.22
2024-04-24T09:14:32.624Z,8.19
2024-04-24T09:17:01.883Z,8.19
2024-04-24T09:19:30.438Z,8.19
2024-04-24T09:21:58.146Z,8.19
2024-04-24T09:24:25.919Z,8.17
2024-04-24T09:26:55.578Z,8.18
2024-04-24T09:29:24.037Z,8.22
2024-04-24T09:31:51.880Z,8.20
2024-04-24T09:34:19.798Z,8.18
2024-04-24T09:36:48.699Z,8.20
2024-04-24T09:39:17.962Z,8.23
2024-04-24T09:41:49.475Z,8.23
2024-04-24T09:44:17.445Z,8.26
2024-04-24T09:46:55.663Z,8.28
2024-04-24T09:49:24.185Z,8.27
2024-04-24T09:51:52.041Z,8.29
2024-04-24T09:54:22.494Z,8.33
2024-04-24T09:56:55.392Z,8.33
2024-04-24T09:59:30.726Z,8.29
2024-04-24T10:02:13.166Z,8.29
2024-04-24T10:04:48.509Z,8.35
2024-04-24T10:09:49.264Z,8.36
2024-04-24T10:12:30.606Z,8.37
2024-04-24T10:15:12.829Z,8.39
2024-04-24T10:17:42.941Z,8.40
2024-04-24T10:20:19.522Z,8.39
2024-04-24T10:22:54.946Z,8.41
2024-04-24T10:25:24.280Z,8.41
2024-04-24T10:27:53.178Z,8.39
2024-04-24T10:30:21.613Z,8.36
2024-04-24T10:32:49.541Z,8.32
2024-04-24T10:35:20.540Z,8.29
2024-04-24T10:37:53.795Z,8.28
2024-04-24T10:40:28.697Z,8.30
2024-04-24T10:43:00.365Z,8.34
2024-04-24T10:45:28.888Z,8.36
2024-04-24T10:47:57.479Z,8.38
2024-04-24T10:50:29.328Z,8.39
2024-04-24T10:52:57.578Z,8.43
2024-04-24T10:55:25.474Z,8.46
2024-04-24T10:57:54.690Z,8.47
2024-04-24T11:00:23.915Z,8.48
2024-04-24T11:03:00.439Z,8.48
2024-04-24T11:05:36.868Z,8.51
2024-04-24T11:08:06.111Z,8.55
2024-04-24T11:10:35.146Z,8.59
2024-04-24T11:13:13.982Z,8.62
2024-04-24T11:15:45.353Z,8.65
2024-04-24T11:18:18.794Z,8.65
2024-04-24T11:20:46.689Z,8.67
2024-04-24T11:23:14.661Z,8.70
2024-04-24T11:25:57.992Z,8.70
2024-04-24T11:28:28.031Z,8.73
2024-04-24T11:30:56.276Z,8.75
2024-04-24T11:33:24.651Z,8.79
2024-04-24T11:35:53.548Z,8.80
2024-04-24T11:38:21.385Z,8.79
2024-04-24T11:40:49.187Z,8.78
2024-04-24T11:43:17.839Z,8.80
2024-04-24T11:45:46.207Z,8.82
2024-04-24T11:48:14.078Z,8.84
2024-04-24T11:50:42.024Z,8.87
2024-04-24T11:53:10.025Z,8.87
2024-04-24T11:55:37.745Z,8.88
2024-04-24T11:58:14.977Z,8.88
2024-04-24T12:00:42.906Z,8.88
2024-04-24T12:03:10.954Z,8.86
2024-04-24T12:05:40.115Z,8.84
2024-04-24T12:08:09.795Z,8.87
2024-04-24T12:10:37.662Z,8.91
2024-04-24T12:13:05.596Z,8.93
2024-04-24T12:15:33.339Z,8.95
2024-04-24T12:18:01.166Z,8.96
2024-04-24T12:20:28.978Z,8.91
2024-04-24T12:22:56.784Z,8.92
2024-04-24T12:25:24.456Z,8.96
2024-04-24T12:27:52.317Z,9.01
2024-04-24T12:30:20.099Z,9.06
2024-04-24T12:32:48.375Z,9.08
2024-04-24T12:35:16.200Z,9.12
2024-04-24T12:37:43.931Z,9.13
2024-04-24T12:40:13.847Z,9.16
2024-04-24T12:42:41.708Z,9.20
2024-04-24T12:45:09.767Z,9.23
2024-04-24T12:47:37.879Z,9.31
2024-04-24T12:50:06.022Z,9.38
2024-04-24T12:52:34.053Z,9.39
2024-04-24T12:55:01.798Z,9.36
2024-04-24T12:57:29.492Z,9.31
2024-04-24T12:59:57.207Z,9.34
2024-04-24T13:02:25.098Z,9.34
2024-04-24T13:04:52.890Z,9.40
2024-04-24T13:07:20.582Z,9.47
2024-04-24T13:09:49.463Z,9.53
2024-04-24T13:12:20.390Z,9.53
2024-04-24T13:14:49.769Z,9.47
2024-04-24T13:17:17.628Z,9.46
2024-04-24T13:19:45.520Z,9.45
2024-04-24T13:22:13.217Z,9.45
2024-04-24T13:24:40.927Z,9.43
2024-04-24T13:27:08.587Z,9.41
2024-04-24T13:29:36.281Z,9.43
2024-04-24T13:32:04.071Z,9.44
2024-04-24T13:34:31.972Z,9.43
2024-04-24T13:36:59.744Z,9.42
2024-04-24T13:39:27.389Z,9.41
2024-04-24T13:41:55.162Z,9.39
2024-04-24T13:44:22.900Z,9.37
2024-04-24T13:46:50.622Z,9.32
2024-04-24T13:49:18.361Z,9.33
2024-04-24T13:51:46.151Z,9.36
2024-04-24T13:54:16.350Z,9.33
2024-04-24T13:56:44.905Z,9.31
2024-04-24T13:59:14.033Z,9.33
2024-04-24T14:01:41.950Z,9.36
2024-04-24T14:04:09.805Z,9.37
2024-04-24T14:06:37.618Z,9.36
2024-04-24T14:09:05.422Z,9.34
2024-04-24T14:11:33.175Z,9.31
2024-04-24T14:14:01.121Z,9.32
2024-04-24T14:16:28.910Z,9.31
2024-04-24T14:18:56.684Z,9.29
2024-04-24T14:21:24.358Z,9.29
2024-04-24T14:23:52.061Z,9.27
2024-04-24T14:26:20.232Z,9.24
2024-04-24T14:28:48.019Z,9.22
2024-04-24T14:31:15.856Z,9.19
2024-04-24T14:33:43.639Z,9.22
2024-04-24T14:36:11.434Z,9.24
2024-04-24T14:38:39.184Z,9.24
2024-04-24T14:41:08.899Z,9.22
2024-04-24T14:43:37.566Z,9.20
2024-04-24T14:46:06.141Z,9.18
2024-04-24T14:48:33.937Z,9.18
2024-04-24T14:51:02.214Z,9.18
2024-04-24T14:53:29.908Z,9.21
2024-04-24T14:55:58.888Z,9.25
2024-04-24T14:58:26.823Z,9.29
2024-04-24T15:00:55.596Z,9.31
2024-04-24T15:03:24.958Z,9.30
2024-04-24T15:05:52.807Z,9.30
2024-04-24T15:08:20.669Z,9.31
2024-04-24T15:10:49.899Z,9.28
2024-04-24T15:13:17.645Z,9.24
2024-04-24T15:15:47.291Z,9.22
2024-04-24T15:18:15.116Z,9.25
2024-04-24T15:20:42.954Z,9.25
2024-04-24T15:23:12.318Z,9.22
2024-04-24T15:25:43.390Z,9.18
2024-04-24T15:28:11.109Z,9.15
2024-04-24T15:30:38.805Z,9.12
2024-04-24T15:33:06.817Z,9.11
2024-04-24T15:35:34.875Z,9.12
2024-04-24T15:38:02.693Z,9.14
2024-04-24T15:40:30.418Z,9.15
2024-04-24T15:42:58.153Z,9.14
2024-04-24T15:45:27.015Z,9.14
2024-04-24T15:47:54.933Z,9.13
2024-04-24T15:50:22.756Z,9.13
2024-04-24T15:52:50.475Z,9.11
2024-04-24T15:55:18.133Z,9.14
2024-04-24T15:57:45.804Z,9.18
2024-04-24T16:00:13.847Z,9.21
2024-04-24T16:02:44.102Z,9.23
2024-04-24T16:05:14.458Z,9.27
2024-04-24T16:07:42.472Z,9.30
2024-04-24T16:10:10.765Z,9.30
2024-04-24T16:12:38.511Z,9.34
2024-04-24T16:15:06.759Z,9.34
2024-04-24T16:17:34.569Z,9.30
2024-04-24T16:20:02.721Z,9.28
2024-04-24T16:22:30.670Z,9.26
2024-04-24T16:24:58.449Z,9.21
2024-04-24T16:27:26.154Z,9.17
2024-04-24T16:29:53.835Z,9.18
2024-04-24T16:32:22.300Z,9.19
2024-04-24T16:34:50.110Z,9.19
2024-04-24T16:37:17.895Z,9.21
2024-04-24T16:39:47.004Z,9.21
2024-04-24T16:42:14.787Z,9.22
2024-04-24T16:44:42.549Z,9.22
2024-04-24T16:47:11.764Z,9.23
2024-04-24T16:49:40.380Z,9.26
2024-04-24T16:52:11.150Z,9.28
2024-04-24T16:54:39.568Z,9.26
2024-04-24T16:57:08.220Z,9.27
2024-04-24T16:59:36.093Z,9.24
2024-04-24T17:02:03.849Z,9.23
2024-04-24T17:04:33.176Z,9.23
2024-04-24T17:07:00.990Z,9.25
2024-04-24T17:09:29.636Z,9.27
2024-04-24T17:11:58.044Z,9.29
2024-04-24T17:14:27.599Z,9.28
2024-04-24T17:16:55.405Z,9.25
2024-04-24T17:19:23.304Z,9.22
2024-04-24T17:21:51.312Z,9.23
2024-04-24T17:24:21.863Z,9.24
2024-04-24T17:26:52.843Z,9.24
2024-04-24T17:29:20.720Z,9.21
2024-04-24T17:31:48.424Z,9.18
2024-04-24T17:34:21.471Z,9.16
2024-04-24T17:36:49.113Z,9.13
2024-04-24T17:39:17.509Z,9.11
2024-04-24T17:41:45.411Z,9.09
2024-04-24T17:44:13.351Z,9.04
2024-04-24T17:46:41.251Z,9.01
2024-04-24T17:49:08.983Z,9.01
2024-04-24T17:51:37.467Z,9.01
2024-04-24T17:54:05.323Z,9.04
2024-04-24T17:56:34.322Z,9.04
2024-04-24T17:59:02.165Z,9.05
2024-04-24T18:01:29.913Z,9.04
2024-04-24T18:03:57.609Z,9.01
2024-04-24T18:06:25.446Z,8.99
2024-04-24T18:08:53.149Z,9.01
2024-04-24T18:11:21.290Z,9.02
2024-04-24T18:13:49.195Z,9.02
2024-04-24T18:16:16.933Z,9.05
2024-04-24T18:18:45.163Z,9.07
2024-04-24T18:21:12.929Z,9.10
2024-04-24T18:23:40.815Z,9.15
2024-04-24T18:26:08.586Z,9.18
2024-04-24T18:28:36.342Z,9.15
2024-04-24T18:31:04.225Z,9.15
2024-04-24T18:33:32.013Z,9.16
2024-04-24T18:36:00.241Z,9.17
2024-04-24T18:38:28.389Z,9.17
2024-04-24T18:40:56.201Z,9.14
2024-04-24T18:43:23.902Z,9.12
2024-04-24T18:45:51.627Z,9.08
2024-04-24T18:48:20.597Z,9.03
2024-04-24T18:50:48.411Z,9.01
2024-04-24T18:53:16.197Z,9.03
2024-04-24T18:55:44.850Z,9.00
2024-04-24T18:58:12.656Z,8.96
2024-04-24T19:00:40.913Z,8.94
2024-04-24T19:03:08.786Z,8.89
2024-04-24T19:05:36.683Z,8.92
2024-04-24T19:08:05.124Z,8.91
2024-04-24T19:10:32.843Z,8.89
2024-04-24T19:13:00.563Z,8.86
2024-04-24T19:15:29.391Z,8.86
2024-04-24T19:17:57.171Z,8.85
2024-04-24T19:20:25.259Z,8.89
2024-04-24T19:22:53.181Z,8.92
2024-04-24T19:25:21.012Z,8.89
2024-04-24T19:27:48.774Z,8.86
2024-04-24T19:30:16.588Z,8.87
2024-04-24T19:32:44.471Z,8.92
2024-04-24T19:35:12.390Z,8.94
2024-04-24T19:37:40.270Z,8.93
2024-04-24T19:40:08.635Z,8.92
2024-04-24T19:42:36.436Z,8.92
2024-04-24T19:45:04.471Z,8.95
2024-04-24T19:47:32.196Z,9.00
2024-04-24T19:50:01.163Z,9.01
2024-04-24T19:52:29.031Z,8.99
2024-04-24T19:54:56.715Z,8.92
2024-04-24T19:57:24.373Z,8.89
2024-04-24T19:59:52.115Z,8.87
2024-04-24T20:02:21.240Z,8.88
2024-04-24T20:04:50.109Z,8.87
2024-04-24T20:07:17.816Z,8.86
2024-04-24T20:09:46.237Z,8.87
2024-04-24T20:12:14.011Z,8.86
2024-04-24T20:14:42.000Z,8.83
2024-04-24T20:17:10.112Z,8.76
2024-04-24T20:19:38.171Z,8.70
2024-04-24T20:22:06.105Z,8.64
2024-04-24T20:24:33.827Z,8.60
2024-04-24T20:27:01.522Z,8.57
2024-04-24T20:29:29.400Z,8.56
2024-04-24T20:31:57.153Z,8.52
2024-04-24T20:34:28.322Z,8.49
2024-04-24T20:36:56.398Z,8.47
2024-04-24T20:39:24.228Z,8.47
2024-04-24T20:41:51.863Z,8.46
2024-04-24T20:44:22.104Z,8.41
2024-04-24T20:46:49.873Z,8.40
2024-04-24T20:49:17.612Z,8.40
2024-04-24T20:51:45.460Z,8.39
2024-04-24T20:54:13.270Z,8.40
2024-04-24T20:56:40.959Z,8.40
2024-04-24T20:59:09.208Z,8.41
2024-04-24T21:01:38.518Z,8.38
2024-04-24T21:04:06.979Z,8.38
2024-04-24T21:06:36.187Z,8.34
2024-04-24T21:09:03.926Z,8.29
2024-04-24T21:11:31.742Z,8.28
2024-04-24T21:13:59.546Z,8.26
2024-04-24T21:16:27.283Z,8.23
2024-04-24T21:18:55.461Z,8.21
2024-04-24T21:21:23.561Z,8.18
2024-04-24T21:23:52.086Z,8.18
2024-04-24T21:26:19.907Z,8.22
2024-04-24T21:28:48.274Z,8.21
2024-04-24T21:31:16.002Z,8.16
2024-04-24T21:33:43.740Z,8.13
2024-04-24T21:36:11.490Z,8.06
2024-04-24T21:38:39.386Z,8.01
2024-04-24T21:41:20.135Z,8.02
2024-04-24T21:43:49.274Z,8.02
2024-04-24T21:46:19.569Z,8.00
2024-04-24T21:48:47.427Z,7.94
2024-04-24T21:51:15.192Z,7.87
2024-04-24T21:53:43.120Z,7.75
2024-04-24T21:56:10.917Z,7.63
2024-04-24T21:58:39.947Z,7.57
2024-04-24T22:01:09.002Z,7.53
2024-04-24T22:03:36.988Z,7.49
2024-04-24T22:06:05.715Z,7.45
2024-04-24T22:08:33.519Z,7.42
2024-04-24T22:11:01.502Z,7.40
2024-04-24T22:13:29.413Z,7.36
2024-04-24T22:15:57.110Z,7.32
2024-04-24T22:18:24.995Z,7.27
2024-04-24T22:20:52.833Z,7.27
2024-04-24T22:23:20.548Z,7.26
2024-04-24T22:25:48.310Z,7.26
2024-04-24T22:28:16.068Z,7.24
2024-04-24T22:30:43.940Z,7.20
2024-04-24T22:33:11.680Z,7.15
2024-04-24T22:35:39.801Z,7.10
2024-04-24T22:38:09.402Z,7.09
2024-04-24T22:40:37.257Z,7.09
2024-04-24T22:43:05.085Z,7.10
2024-04-24T22:45:32.868Z,7.12
2024-04-24T22:48:00.743Z,7.10
2024-04-24T22:50:28.715Z,7.06
2024-04-24T22:52:56.507Z,7.05
2024-04-24T22:55:24.220Z,7.09
2024-04-24T22:57:51.894Z,7.11
2024-04-24T23:00:19.712Z,7.10
2024-04-24T23:02:47.819Z,7.09
2024-04-24T23:05:15.870Z,7.06
2024-04-24T23:07:43.731Z,7.05
2024-04-24T23:10:11.595Z,7.10
2024-04-24T23:12:39.351Z,7.12
2024-04-24T23:15:07.291Z,7.11
2024-04-24T23:17:35.112Z,7.10
2024-04-24T23:20:03.228Z,7.06
2024-04-24T23:22:31.029Z,7.04
2024-04-24T23:24:58.877Z,7.01
2024-04-24T23:27:26.519Z,6.98
2024-04-24T23:29:54.270Z,6.96
2024-04-24T23:32:22.010Z,6.92
2024-04-24T23:34:49.796Z,6.89
2024-04-24T23:37:17.443Z,6.89
2024-04-24T23:39:45.202Z,6.90
2024-04-24T23:42:12.838Z,6.90
2024-04-24T23:44:40.619Z,6.89
2024-04-24T23:47:08.412Z,6.87
2024-04-24T23:49:36.232Z,6.83
2024-04-24T23:52:04.045Z,6.83
2024-04-24T23:54:31.772Z,6.84
2024-04-24T23:56:59.414Z,6.86
2024-04-24T23:59:27.132Z,6.89
